Hlavní strana
METAR-TAF:

METAR-TAF

Letiště :

Aruba, Aruba

zeměpisná šířka: 12-30N, zeměpisná délka: 070-01W, výška: 18 m

Aktuální stav počasí

Zpráva byla vytvořena před 59 minutami, v 08:00 UTC
Východní vítr 15 kt
Teplota 27°C
Vlhkost vzduchu 84%
Tlak 1012 hPa
Viditelnost 10 km a více
Skoro jasno ve výšce 1700 ft

METAR: TNCA 300800Z 10015KT 9999 FEW017 27/24 Q1012 NOSIG

Čas: 04:59 (08:59 UTC)

Předpověď počasí

Zpráva byla vytvořena před 2 hodinami a 59 minutami, v 06:00 UTC
Předpověď platná od 30 v 06 UTC do 31 v 06 UTC
Východní vítr 16 kt
Viditelnost 10 km a více
Polojasno ve výšce 1800 ft
Dočasný
od 30 v 06 UTC do 30 v 15 UTC
Oblačno až skoro zataženo ve výšce 1500 ft

TAF: TNCA 300600Z 3006/3106 09016KT 9999 SCT018 TEMPO 3006/3015 BKN015

Stav a předpovědi počasí z více než 4 000 letišť (zprávy METAR a TAF).

Červené a žluté tečky na mapě představují dostupné meteorologické stanice.

Když kurzor umístíte na tečku, zobrazí se název stanice.

Pak kliknutím zobrazíte stav a předpověď počasí.

Chcete-li změnit mapu, kliknutím na zelené tlačítko se znaménkem +mapu přiblížíte, kliknutím na zelené tlačítko se znaménkem – mapu oddálíte a kliknutím na zelené šipky přejdete na sousední mapy.


METAR-TAF: